DAOL

Tafaraoui Airport

Algeria
METAR DAOL 190200Z 28004KT 9999 SCT030 SCT100 11/11 Q1016
Observed Flight Rules
Jan-19 @ 02:00 UTC (2 hours ago) Visual Flight Rules
Wind Visibility Clouds
280° at 4 knots 10,000+ meters
  • Scattered at 3,000' AGL
  • Scattered at 10,000' AGL
Temperatures Readings
Current 11°C / 52°F
Dewpoint 11°C / 52°F
Humidity 100%
Altimeter 30" Hg
Pressure 1016 hPa
Elevation 112
METAR DAOL 190200Z 28004KT 9999 SCT030 SCT100 11/11 Q1016
Observed Flight Rules
Jan-19 @ 02:00 UTC
(2 hours ago)
VFR
Wind Visibility
280° at 4 knots 10,000+ meters
Clouds
  • Scattered at 3,000' AGL
  • Scattered at 10,000' AGL
Temperature Dewpoint
11°C / 52°F 11°C / 52°F
Humidity Altimeter Pressure
100% 30" Hg 1016 hPa